sensor_id;sensor_type;location;lat;lon;timestamp;pressure;altitude;pressure_sealevel;temperature;humidity
64368;BME280;50692;53.314;-6.300;2023-01-31T00:00:43;101943.75;;;9.42;87.23
64368;BME280;50692;53.314;-6.300;2023-01-31T00:03:28;101942.78;;;9.45;87.61
64368;BME280;50692;53.314;-6.300;2023-01-31T00:06:42;101948.97;;;9.44;88.12
64368;BME280;50692;53.314;-6.300;2023-01-31T00:09:28;101930.03;;;9.29;88.22
64368;BME280;50692;53.314;-6.300;2023-01-31T00:12:15;101957.97;;;9.36;88.32
64368;BME280;50692;53.314;-6.300;2023-01-31T00:15:01;101922.25;;;9.25;88.26
64368;BME280;50692;53.314;-6.300;2023-01-31T00:17:48;101909.94;;;9.24;88.35
64368;BME280;50692;53.314;-6.300;2023-01-31T00:20:34;101939.56;;;9.33;88.54
64368;BME280;50692;53.314;-6.300;2023-01-31T00:23:21;101950.00;;;9.38;88.22
64368;BME280;50692;53.314;-6.300;2023-01-31T00:29:12;101927.78;;;9.47;87.97
64368;BME280;50692;53.314;-6.300;2023-01-31T00:31:59;101915.13;;;9.58;87.43
64368;BME280;50692;53.314;-6.300;2023-01-31T00:34:45;101913.94;;;9.68;86.70
64368;BME280;50692;53.314;-6.300;2023-01-31T00:37:31;101907.28;;;9.55;87.19
64368;BME280;50692;53.314;-6.300;2023-01-31T00:40:16;101900.44;;;9.49;87.37
64368;BME280;50692;53.314;-6.300;2023-01-31T00:43:02;101905.47;;;9.57;87.37
64368;BME280;50692;53.314;-6.300;2023-01-31T00:45:48;101895.88;;;9.54;87.58
64368;BME280;50692;53.314;-6.300;2023-01-31T00:48:34;101904.50;;;9.59;87.55
64368;BME280;50692;53.314;-6.300;2023-01-31T00:51:20;101919.25;;;9.67;87.32
64368;BME280;50692;53.314;-6.300;2023-01-31T00:54:06;101906.94;;;9.67;87.57
64368;BME280;50692;53.314;-6.300;2023-01-31T00:56:53;101902.75;;;9.60;87.80
64368;BME280;50692;53.314;-6.300;2023-01-31T00:59:39;101899.78;;;9.71;87.40
64368;BME280;50692;53.314;-6.300;2023-01-31T01:02:25;101898.09;;;9.68;87.36
64368;BME280;50692;53.314;-6.300;2023-01-31T01:05:12;101887.53;;;9.68;87.44
64368;BME280;50692;53.314;-6.300;2023-01-31T01:07:58;101865.03;;;9.56;87.11
64368;BME280;50692;53.314;-6.300;2023-01-31T01:10:44;101882.94;;;9.75;87.08
64368;BME280;50692;53.314;-6.300;2023-01-31T01:13:29;101887.88;;;9.85;86.66
64368;BME280;50692;53.314;-6.300;2023-01-31T01:16:22;101877.31;;;9.85;86.56
64368;BME280;50692;53.314;-6.300;2023-01-31T01:19:18;101839.94;;;9.70;86.66
64368;BME280;50692;53.314;-6.300;2023-01-31T01:22:05;101841.97;;;9.61;87.36
64368;BME280;50692;53.314;-6.300;2023-01-31T01:24:51;101832.50;;;9.54;88.22
64368;BME280;50692;53.314;-6.300;2023-01-31T01:27:37;101883.72;;;9.77;88.81
64368;BME280;50692;53.314;-6.300;2023-01-31T01:30:23;101864.44;;;9.75;89.21
64368;BME280;50692;53.314;-6.300;2023-01-31T01:33:08;101863.78;;;9.68;89.53
64368;BME280;50692;53.314;-6.300;2023-01-31T01:35:59;101862.06;;;9.67;90.70
64368;BME280;50692;53.314;-6.300;2023-01-31T01:38:46;101858.00;;;9.55;91.85
64368;BME280;50692;53.314;-6.300;2023-01-31T01:41:33;101864.78;;;9.64;91.73
64368;BME280;50692;53.314;-6.300;2023-01-31T01:44:49;101864.91;;;9.59;93.14
64368;BME280;50692;53.314;-6.300;2023-01-31T01:47:50;101854.50;;;9.55;93.43
64368;BME280;50692;53.314;-6.300;2023-01-31T01:50:43;101856.53;;;9.45;94.64
64368;BME280;50692;53.314;-6.300;2023-01-31T01:53:34;101828.50;;;9.41;94.55
64368;BME280;50692;53.314;-6.300;2023-01-31T01:56:27;101853.09;;;9.43;94.99
64368;BME280;50692;53.314;-6.300;2023-01-31T02:02:31;101845.88;;;9.48;94.87
64368;BME280;50692;53.314;-6.300;2023-01-31T02:05:21;101851.16;;;9.48;95.04
64368;BME280;50692;53.314;-6.300;2023-01-31T02:08:08;101826.63;;;9.46;94.85
64368;BME280;50692;53.314;-6.300;2023-01-31T02:11:02;101838.75;;;9.52;94.77
64368;BME280;50692;53.314;-6.300;2023-01-31T02:13:52;101832.94;;;9.41;95.11
64368;BME280;50692;53.314;-6.300;2023-01-31T02:16:40;101847.66;;;9.48;95.34
64368;BME280;50692;53.314;-6.300;2023-01-31T02:22:55;101800.59;;;9.34;95.90
64368;BME280;50692;53.314;-6.300;2023-01-31T02:41:37;101834.28;;;9.54;97.04
64368;BME280;50692;53.314;-6.300;2023-01-31T02:44:35;101814.97;;;9.53;97.17
64368;BME280;50692;53.314;-6.300;2023-01-31T02:48:15;101820.03;;;9.59;97.32
64368;BME280;50692;53.314;-6.300;2023-01-31T02:51:13;101823.56;;;9.60;97.55
64368;BME280;50692;53.314;-6.300;2023-01-31T02:54:17;101813.13;;;9.55;97.41
64368;BME280;50692;53.314;-6.300;2023-01-31T02:57:04;101809.44;;;9.61;97.85
64368;BME280;50692;53.314;-6.300;2023-01-31T02:59:50;101804.75;;;9.71;97.65
64368;BME280;50692;53.314;-6.300;2023-01-31T03:02:38;101809.97;;;9.72;97.25
64368;BME280;50692;53.314;-6.300;2023-01-31T03:05:23;101800.25;;;9.73;97.17
64368;BME280;50692;53.314;-6.300;2023-01-31T03:08:10;101814.38;;;9.72;97.21
64368;BME280;50692;53.314;-6.300;2023-01-31T03:11:03;101811.31;;;9.84;97.41
64368;BME280;50692;53.314;-6.300;2023-01-31T03:17:19;101807.81;;;9.83;97.69
64368;BME280;50692;53.314;-6.300;2023-01-31T03:23:13;101811.03;;;9.93;97.70
64368;BME280;50692;53.314;-6.300;2023-01-31T03:26:00;101821.44;;;9.98;97.49
64368;BME280;50692;53.314;-6.300;2023-01-31T03:28:48;101793.66;;;9.86;97.84
64368;BME280;50692;53.314;-6.300;2023-01-31T03:31:52;101820.75;;;9.93;97.96
64368;BME280;50692;53.314;-6.300;2023-01-31T03:34:39;101807.03;;;9.81;98.13
64368;BME280;50692;53.314;-6.300;2023-01-31T03:40:18;101824.44;;;9.87;98.96
64368;BME280;50692;53.314;-6.300;2023-01-31T03:46:21;101828.75;;;9.90;99.26
64368;BME280;50692;53.314;-6.300;2023-01-31T03:49:10;101824.34;;;9.90;99.82
64368;BME280;50692;53.314;-6.300;2023-01-31T03:52:09;101819.88;;;9.92;100.00
64368;BME280;50692;53.314;-6.300;2023-01-31T03:55:14;101813.25;;;9.79;100.00
64368;BME280;50692;53.314;-6.300;2023-01-31T03:58:02;101810.72;;;9.76;100.00
64368;BME280;50692;53.314;-6.300;2023-01-31T04:00:49;101827.91;;;9.89;100.00
64368;BME280;50692;53.314;-6.300;2023-01-31T04:03:43;101841.91;;;9.91;100.00
64368;BME280;50692;53.314;-6.300;2023-01-31T04:06:30;101835.00;;;9.87;100.00
64368;BME280;50692;53.314;-6.300;2023-01-31T04:09:16;101854.41;;;9.86;100.00
64368;BME280;50692;53.314;-6.300;2023-01-31T04:12:04;101828.78;;;9.88;100.00
64368;BME280;50692;53.314;-6.300;2023-01-31T04:14:50;101846.41;;;9.88;100.00
64368;BME280;50692;53.314;-6.300;2023-01-31T04:17:36;101826.47;;;9.79;100.00
64368;BME280;50692;53.314;-6.300;2023-01-31T04:20:22;101859.44;;;9.94;100.00
64368;BME280;50692;53.314;-6.300;2023-01-31T04:23:08;101870.34;;;9.83;100.00
64368;BME280;50692;53.314;-6.300;2023-01-31T04:25:54;101877.22;;;9.89;100.00
64368;BME280;50692;53.314;-6.300;2023-01-31T04:28:40;101882.00;;;9.76;100.00
64368;BME280;50692;53.314;-6.300;2023-01-31T04:31:26;101874.28;;;9.70;100.00
64368;BME280;50692;53.314;-6.300;2023-01-31T04:34:11;101884.16;;;9.63;100.00
64368;BME280;50692;53.314;-6.300;2023-01-31T04:36:58;101874.91;;;9.48;99.76
64368;BME280;50692;53.314;-6.300;2023-01-31T04:39:44;101867.09;;;9.45;99.03
64368;BME280;50692;53.314;-6.300;2023-01-31T04:42:32;101898.75;;;9.45;96.80
64368;BME280;50692;53.314;-6.300;2023-01-31T04:45:17;101898.03;;;9.40;93.84
64368;BME280;50692;53.314;-6.300;2023-01-31T04:48:03;101893.13;;;9.28;91.46
64368;BME280;50692;53.314;-6.300;2023-01-31T04:50:49;101907.19;;;9.28;90.51
64368;BME280;50692;53.314;-6.300;2023-01-31T04:53:35;101911.84;;;9.19;89.32
64368;BME280;50692;53.314;-6.300;2023-01-31T04:56:22;101915.72;;;9.07;89.02
64368;BME280;50692;53.314;-6.300;2023-01-31T04:59:08;101894.34;;;8.85;88.21
64368;BME280;50692;53.314;-6.300;2023-01-31T05:01:55;101922.25;;;8.92;87.85
64368;BME280;50692;53.314;-6.300;2023-01-31T05:04:41;101926.03;;;8.82;87.33
64368;BME280;50692;53.314;-6.300;2023-01-31T05:07:26;101918.25;;;8.77;86.77
64368;BME280;50692;53.314;-6.300;2023-01-31T05:10:14;101926.34;;;8.70;86.67
64368;BME280;50692;53.314;-6.300;2023-01-31T05:13:00;101910.00;;;8.57;86.33
64368;BME280;50692;53.314;-6.300;2023-01-31T05:15:53;101916.22;;;8.54;85.12
64368;BME280;50692;53.314;-6.300;2023-01-31T05:18:39;101923.19;;;8.57;84.64
64368;BME280;50692;53.314;-6.300;2023-01-31T05:21:24;101926.69;;;8.56;83.69
64368;BME280;50692;53.314;-6.300;2023-01-31T05:24:11;101904.94;;;8.49;82.79
64368;BME280;50692;53.314;-6.300;2023-01-31T05:26:59;101922.25;;;8.58;82.67
64368;BME280;50692;53.314;-6.300;2023-01-31T05:29:46;101905.88;;;8.45;82.70
64368;BME280;50692;53.314;-6.300;2023-01-31T05:32:31;101906.84;;;8.43;82.48
64368;BME280;50692;53.314;-6.300;2023-01-31T05:35:18;101898.88;;;8.44;81.80
64368;BME280;50692;53.314;-6.300;2023-01-31T05:38:04;101893.84;;;8.35;81.41
64368;BME280;50692;53.314;-6.300;2023-01-31T05:40:53;101899.00;;;8.39;81.33
64368;BME280;50692;53.314;-6.300;2023-01-31T05:43:45;101893.94;;;8.30;81.24
64368;BME280;50692;53.314;-6.300;2023-01-31T05:46:31;101870.56;;;8.16;81.21
64368;BME280;50692;53.314;-6.300;2023-01-31T05:49:16;101867.84;;;8.20;81.48
64368;BME280;50692;53.314;-6.300;2023-01-31T05:52:02;101888.72;;;8.29;81.55
64368;BME280;50692;53.314;-6.300;2023-01-31T05:54:48;101879.97;;;8.27;81.59
64368;BME280;50692;53.314;-6.300;2023-01-31T05:57:34;101889.63;;;8.28;81.65
64368;BME280;50692;53.314;-6.300;2023-01-31T06:00:22;101873.13;;;8.20;82.54
64368;BME280;50692;53.314;-6.300;2023-01-31T06:03:09;101866.97;;;8.21;83.59
64368;BME280;50692;53.314;-6.300;2023-01-31T06:05:54;101868.63;;;8.25;84.58
64368;BME280;50692;53.314;-6.300;2023-01-31T06:08:41;101850.47;;;8.12;85.18
64368;BME280;50692;53.314;-6.300;2023-01-31T06:11:30;101847.31;;;7.98;86.11
64368;BME280;50692;53.314;-6.300;2023-01-31T06:14:16;101895.91;;;8.22;86.88
64368;BME280;50692;53.314;-6.300;2023-01-31T06:17:02;101890.94;;;8.08;87.22
64368;BME280;50692;53.314;-6.300;2023-01-31T06:19:49;101897.78;;;8.17;87.10
64368;BME280;50692;53.314;-6.300;2023-01-31T06:22:34;101893.53;;;8.11;86.76
64368;BME280;50692;53.314;-6.300;2023-01-31T06:25:22;101896.72;;;8.24;86.36
64368;BME280;50692;53.314;-6.300;2023-01-31T06:28:10;101898.59;;;8.21;86.53
64368;BME280;50692;53.314;-6.300;2023-01-31T06:30:57;101901.03;;;8.28;86.57
64368;BME280;50692;53.314;-6.300;2023-01-31T06:33:43;101901.09;;;8.24;87.16
64368;BME280;50692;53.314;-6.300;2023-01-31T06:36:33;101888.72;;;8.27;87.32
64368;BME280;50692;53.314;-6.300;2023-01-31T06:39:19;101900.84;;;8.34;87.12
64368;BME280;50692;53.314;-6.300;2023-01-31T06:42:12;101886.22;;;8.23;87.13
64368;BME280;50692;53.314;-6.300;2023-01-31T06:44:58;101861.44;;;7.96;86.92
64368;BME280;50692;53.314;-6.300;2023-01-31T06:47:44;101883.72;;;8.16;86.60
64368;BME280;50692;53.314;-6.300;2023-01-31T06:50:30;101898.59;;;8.21;86.27
64368;BME280;50692;53.314;-6.300;2023-01-31T06:53:16;101912.44;;;8.27;85.92
64368;BME280;50692;53.314;-6.300;2023-01-31T06:56:03;101901.88;;;8.29;85.69
64368;BME280;50692;53.314;-6.300;2023-01-31T06:58:50;101896.69;;;8.26;85.54
64368;BME280;50692;53.314;-6.300;2023-01-31T07:01:36;101887.00;;;8.28;85.24
64368;BME280;50692;53.314;-6.300;2023-01-31T07:04:22;101912.63;;;8.20;85.21
64368;BME280;50692;53.314;-6.300;2023-01-31T07:07:08;101915.25;;;8.21;84.74
64368;BME280;50692;53.314;-6.300;2023-01-31T07:09:54;101908.22;;;8.20;84.43
64368;BME280;50692;53.314;-6.300;2023-01-31T07:12:41;101914.34;;;8.22;83.69
64368;BME280;50692;53.314;-6.300;2023-01-31T07:15:27;101929.88;;;8.33;83.43
64368;BME280;50692;53.314;-6.300;2023-01-31T07:18:13;101919.59;;;8.22;83.30
64368;BME280;50692;53.314;-6.300;2023-01-31T07:21:06;101894.63;;;8.03;83.02
64368;BME280;50692;53.314;-6.300;2023-01-31T07:23:52;101948.38;;;8.31;82.65
64368;BME280;50692;53.314;-6.300;2023-01-31T07:26:39;101938.84;;;8.26;82.77
64368;BME280;50692;53.314;-6.300;2023-01-31T07:29:25;101897.38;;;7.97;82.74
64368;BME280;50692;53.314;-6.300;2023-01-31T07:32:11;101949.31;;;8.27;82.89
64368;BME280;50692;53.314;-6.300;2023-01-31T07:34:57;101958.19;;;8.25;82.87
64368;BME280;50692;53.314;-6.300;2023-01-31T07:37:44;101955.56;;;8.23;82.89
64368;BME280;50692;53.314;-6.300;2023-01-31T07:40:30;101963.53;;;8.22;82.77
64368;BME280;50692;53.314;-6.300;2023-01-31T07:43:16;101968.66;;;8.28;82.86
64368;BME280;50692;53.314;-6.300;2023-01-31T07:46:07;101972.91;;;8.33;82.93
64368;BME280;50692;53.314;-6.300;2023-01-31T07:48:56;101966.81;;;8.31;83.08
64368;BME280;50692;53.314;-6.300;2023-01-31T07:51:43;101966.91;;;8.27;83.18
64368;BME280;50692;53.314;-6.300;2023-01-31T07:54:29;101981.66;;;8.35;83.76
64368;BME280;50692;53.314;-6.300;2023-01-31T07:57:15;101992.97;;;8.40;83.77
64368;BME280;50692;53.314;-6.300;2023-01-31T08:00:05;101960.69;;;8.29;83.95
64368;BME280;50692;53.314;-6.300;2023-01-31T08:03:26;101964.25;;;8.27;83.65
64368;BME280;50692;53.314;-6.300;2023-01-31T08:06:20;101978.22;;;8.30;83.67
64368;BME280;50692;53.314;-6.300;2023-01-31T08:09:06;102003.53;;;8.39;83.68
64368;BME280;50692;53.314;-6.300;2023-01-31T08:11:52;101995.69;;;8.36;83.87
64368;BME280;50692;53.314;-6.300;2023-01-31T08:14:38;101995.69;;;8.34;83.86
64368;BME280;50692;53.314;-6.300;2023-01-31T08:17:25;101992.25;;;8.32;84.20
64368;BME280;50692;53.314;-6.300;2023-01-31T08:20:11;101990.78;;;8.21;84.20
64368;BME280;50692;53.314;-6.300;2023-01-31T08:22:57;102013.28;;;8.34;84.19
64368;BME280;50692;53.314;-6.300;2023-01-31T08:25:44;102006.53;;;8.22;84.24
64368;BME280;50692;53.314;-6.300;2023-01-31T08:28:30;102028.28;;;8.32;84.15
64368;BME280;50692;53.314;-6.300;2023-01-31T08:31:23;102011.47;;;8.36;84.61
64368;BME280;50692;53.314;-6.300;2023-01-31T08:34:09;102010.53;;;8.40;84.57
64368;BME280;50692;53.314;-6.300;2023-01-31T08:36:55;102003.59;;;8.34;84.56
64368;BME280;50692;53.314;-6.300;2023-01-31T08:39:41;102003.66;;;8.33;84.61
64368;BME280;50692;53.314;-6.300;2023-01-31T08:42:28;101987.28;;;8.18;85.13
64368;BME280;50692;53.314;-6.300;2023-01-31T08:45:16;102003.81;;;8.25;85.73
64368;BME280;50692;53.314;-6.300;2023-01-31T08:48:02;101982.19;;;8.11;86.01
64368;BME280;50692;53.314;-6.300;2023-01-31T08:50:49;101988.28;;;8.13;85.96
64368;BME280;50692;53.314;-6.300;2023-01-31T08:53:43;102000.25;;;8.28;85.73
64368;BME280;50692;53.314;-6.300;2023-01-31T08:56:29;102000.31;;;8.25;86.25
64368;BME280;50692;53.314;-6.300;2023-01-31T08:59:16;101989.06;;;8.16;86.59
64368;BME280;50692;53.314;-6.300;2023-01-31T09:02:02;101996.28;;;8.10;87.26
64368;BME280;50692;53.314;-6.300;2023-01-31T09:04:48;101996.97;;;8.16;87.50
64368;BME280;50692;53.314;-6.300;2023-01-31T09:07:35;102007.31;;;8.26;87.23
64368;BME280;50692;53.314;-6.300;2023-01-31T09:10:22;101997.09;;;8.12;87.54
64368;BME280;50692;53.314;-6.300;2023-01-31T09:13:09;102030.06;;;8.30;87.28
64368;BME280;50692;53.314;-6.300;2023-01-31T09:16:04;102010.81;;;8.26;86.34
64368;BME280;50692;53.314;-6.300;2023-01-31T09:18:51;102028.00;;;8.44;85.42
64368;BME280;50692;53.314;-6.300;2023-01-31T09:21:39;102023.41;;;8.52;84.70
64368;BME280;50692;53.314;-6.300;2023-01-31T09:24:26;102021.56;;;8.56;83.45
64368;BME280;50692;53.314;-6.300;2023-01-31T09:27:13;102002.97;;;8.62;83.10
64368;BME280;50692;53.314;-6.300;2023-01-31T09:29:59;102032.56;;;8.75;82.39
64368;BME280;50692;53.314;-6.300;2023-01-31T09:32:46;102050.59;;;8.92;81.60
64368;BME280;50692;53.314;-6.300;2023-01-31T09:35:31;102055.72;;;8.98;80.99
64368;BME280;50692;53.314;-6.300;2023-01-31T09:38:18;102054.66;;;9.05;80.76
64368;BME280;50692;53.314;-6.300;2023-01-31T09:50:39;102058.78;;;9.82;73.37
64368;BME280;50692;53.314;-6.300;2023-01-31T09:53:30;102083.50;;;9.47;73.44
64368;BME280;50692;53.314;-6.300;2023-01-31T09:56:30;102066.50;;;9.24;74.39
64368;BME280;50692;53.314;-6.300;2023-01-31T09:59:29;102076.59;;;9.41;74.92
64368;BME280;50692;53.314;-6.300;2023-01-31T10:02:45;102075.13;;;9.64;73.29
64368;BME280;50692;53.314;-6.300;2023-01-31T10:05:42;102062.00;;;9.92;71.31
64368;BME280;50692;53.314;-6.300;2023-01-31T10:17:39;102047.53;;;10.35;67.20
64368;BME280;50692;53.314;-6.300;2023-01-31T10:20:41;102035.31;;;10.32;66.69
64368;BME280;50692;53.314;-6.300;2023-01-31T10:26:55;102061.00;;;10.83;64.38
64368;BME280;50692;53.314;-6.300;2023-01-31T10:29:50;102090.44;;;10.99;62.48
64368;BME280;50692;53.314;-6.300;2023-01-31T10:32:41;102097.44;;;11.01;62.55
64368;BME280;50692;53.314;-6.300;2023-01-31T10:35:39;102094.06;;;11.23;60.65
64368;BME280;50692;53.314;-6.300;2023-01-31T10:48:03;102125.41;;;11.62;59.36
64368;BME280;50692;53.314;-6.300;2023-01-31T10:54:12;102125.31;;;11.38;58.76
64368;BME280;50692;53.314;-6.300;2023-01-31T10:56:57;102138.25;;;11.21;59.29
64368;BME280;50692;53.314;-6.300;2023-01-31T10:59:45;102130.34;;;10.93;60.61
64368;BME280;50692;53.314;-6.300;2023-01-31T11:02:32;102098.94;;;10.82;60.93
64368;BME280;50692;53.314;-6.300;2023-01-31T11:05:21;102104.75;;;11.20;60.24
64368;BME280;50692;53.314;-6.300;2023-01-31T11:08:21;102112.25;;;11.59;59.90
64368;BME280;50692;53.314;-6.300;2023-01-31T11:11:19;102113.03;;;11.87;59.21
64368;BME280;50692;53.314;-6.300;2023-01-31T11:14:16;102099.94;;;12.08;57.86
64368;BME280;50692;53.314;-6.300;2023-01-31T11:17:11;102104.63;;;11.99;57.32
64368;BME280;50692;53.314;-6.300;2023-01-31T11:19:59;102120.75;;;12.18;57.09
64368;BME280;50692;53.314;-6.300;2023-01-31T11:22:45;102093.25;;;11.97;56.89
64368;BME280;50692;53.314;-6.300;2023-01-31T11:25:33;102119.44;;;12.52;55.57
64368;BME280;50692;53.314;-6.300;2023-01-31T11:28:24;102115.06;;;12.51;54.45
64368;BME280;50692;53.314;-6.300;2023-01-31T11:31:18;102123.25;;;12.45;55.36
64368;BME280;50692;53.314;-6.300;2023-01-31T11:34:24;102108.31;;;12.66;54.41
64368;BME280;50692;53.314;-6.300;2023-01-31T11:37:17;102088.44;;;12.54;54.12
64368;BME280;50692;53.314;-6.300;2023-01-31T11:43:26;102112.00;;;12.62;53.72
64368;BME280;50692;53.314;-6.300;2023-01-31T11:46:14;102121.06;;;12.78;54.09
64368;BME280;50692;53.314;-6.300;2023-01-31T11:49:10;102113.56;;;12.89;52.92
64368;BME280;50692;53.314;-6.300;2023-01-31T11:52:00;102105.53;;;12.91;52.90
64368;BME280;50692;53.314;-6.300;2023-01-31T11:54:52;102107.44;;;13.31;52.48
64368;BME280;50692;53.314;-6.300;2023-01-31T11:57:39;102098.97;;;13.43;51.53
64368;BME280;50692;53.314;-6.300;2023-01-31T12:00:29;102114.81;;;13.45;50.90
64368;BME280;50692;53.314;-6.300;2023-01-31T12:03:16;102111.03;;;13.71;49.98
64368;BME280;50692;53.314;-6.300;2023-01-31T12:06:05;102108.91;;;13.79;49.58
64368;BME280;50692;53.314;-6.300;2023-01-31T12:08:55;102114.53;;;13.92;49.87
64368;BME280;50692;53.314;-6.300;2023-01-31T12:11:50;102111.56;;;13.79;48.24
64368;BME280;50692;53.314;-6.300;2023-01-31T12:14:39;102119.31;;;13.84;48.36
64368;BME280;50692;53.314;-6.300;2023-01-31T12:17:28;102103.19;;;13.68;49.26
64368;BME280;50692;53.314;-6.300;2023-01-31T12:20:29;102100.81;;;13.62;48.13
64368;BME280;50692;53.314;-6.300;2023-01-31T12:23:44;102100.09;;;13.58;48.54
64368;BME280;50692;53.314;-6.300;2023-01-31T12:26:58;102093.16;;;13.75;48.29
64368;BME280;50692;53.314;-6.300;2023-01-31T12:30:00;102099.97;;;14.01;47.62
64368;BME280;50692;53.314;-6.300;2023-01-31T12:33:08;102081.63;;;13.95;47.80
64368;BME280;50692;53.314;-6.300;2023-01-31T12:42:32;102103.72;;;14.15;47.05
64368;BME280;50692;53.314;-6.300;2023-01-31T12:45:40;102076.28;;;14.15;46.52
64368;BME280;50692;53.314;-6.300;2023-01-31T12:48:49;102074.84;;;14.08;46.45
64368;BME280;50692;53.314;-6.300;2023-01-31T13:01:51;102075.13;;;14.58;44.36
64368;BME280;50692;53.314;-6.300;2023-01-31T13:04:55;102064.09;;;14.28;44.66
64368;BME280;50692;53.314;-6.300;2023-01-31T13:07:51;102081.09;;;14.26;45.27
64368;BME280;50692;53.314;-6.300;2023-01-31T13:10:51;102078.84;;;14.35;45.97
64368;BME280;50692;53.314;-6.300;2023-01-31T13:13:46;102064.56;;;14.19;45.55
64368;BME280;50692;53.314;-6.300;2023-01-31T13:16:41;102065.25;;;13.64;46.39
64368;BME280;50692;53.314;-6.300;2023-01-31T13:19:32;102080.28;;;13.03;48.38
64368;BME280;50692;53.314;-6.300;2023-01-31T13:22:23;102069.13;;;12.72;48.59
64368;BME280;50692;53.314;-6.300;2023-01-31T13:25:19;102067.31;;;12.95;48.76
64368;BME280;50692;53.314;-6.300;2023-01-31T13:31:01;102087.00;;;12.45;48.28
64368;BME280;50692;53.314;-6.300;2023-01-31T13:37:06;102059.28;;;11.59;49.92
64368;BME280;50692;53.314;-6.300;2023-01-31T13:40:05;102092.00;;;11.58;50.77
64368;BME280;50692;53.314;-6.300;2023-01-31T13:43:02;102096.22;;;11.88;50.57
64368;BME280;50692;53.314;-6.300;2023-01-31T13:46:12;102065.44;;;11.86;49.89
64368;BME280;50692;53.314;-6.300;2023-01-31T13:49:14;102087.47;;;11.61;50.23
64368;BME280;50692;53.314;-6.300;2023-01-31T13:52:30;102066.91;;;11.68;51.01
64368;BME280;50692;53.314;-6.300;2023-01-31T13:55:21;102085.50;;;11.66;51.26
64368;BME280;50692;53.314;-6.300;2023-01-31T13:58:29;102078.16;;;11.49;52.13
64368;BME280;50692;53.314;-6.300;2023-01-31T14:01:19;102070.38;;;11.45;53.12
64368;BME280;50692;53.314;-6.300;2023-01-31T14:07:21;102040.50;;;12.37;51.05
64368;BME280;50692;53.314;-6.300;2023-01-31T14:10:23;102078.84;;;13.16;49.45
64368;BME280;50692;53.314;-6.300;2023-01-31T14:23:26;102074.75;;;13.70;46.81
64368;BME280;50692;53.314;-6.300;2023-01-31T14:25:52;102070.38;;;12.86;48.53
64368;BME280;50692;53.314;-6.300;2023-01-31T14:28:42;102069.19;;;12.04;50.28
64368;BME280;50692;53.314;-6.300;2023-01-31T14:31:28;102060.69;;;11.69;51.97
64368;BME280;50692;53.314;-6.300;2023-01-31T14:34:28;102060.47;;;11.75;51.91
64368;BME280;50692;53.314;-6.300;2023-01-31T14:56:09;102061.78;;;13.21;48.66
64368;BME280;50692;53.314;-6.300;2023-01-31T14:59:01;102069.38;;;13.31;48.41
64368;BME280;50692;53.314;-6.300;2023-01-31T15:01:47;102069.09;;;13.16;48.35
64368;BME280;50692;53.314;-6.300;2023-01-31T15:04:59;102074.09;;;13.24;48.22
64368;BME280;50692;53.314;-6.300;2023-01-31T15:14:00;102038.78;;;12.80;47.60
64368;BME280;50692;53.314;-6.300;2023-01-31T15:17:22;102072.88;;;12.89;47.56
64368;BME280;50692;53.314;-6.300;2023-01-31T15:23:02;102052.78;;;12.83;47.39
64368;BME280;50692;53.314;-6.300;2023-01-31T15:26:18;102074.38;;;12.74;47.85
64368;BME280;50692;53.314;-6.300;2023-01-31T15:29:06;102065.63;;;12.72;48.58
64368;BME280;50692;53.314;-6.300;2023-01-31T15:31:59;102066.91;;;12.84;48.22
64368;BME280;50692;53.314;-6.300;2023-01-31T15:34:54;102026.50;;;12.33;48.34
64368;BME280;50692;53.314;-6.300;2023-01-31T15:37:43;102069.59;;;12.60;48.81
64368;BME280;50692;53.314;-6.300;2023-01-31T15:40:31;102075.28;;;12.51;48.96
64368;BME280;50692;53.314;-6.300;2023-01-31T15:43:22;102069.84;;;12.09;50.04
64368;BME280;50692;53.314;-6.300;2023-01-31T15:46:21;102065.03;;;11.96;50.89
64368;BME280;50692;53.314;-6.300;2023-01-31T15:49:39;102054.88;;;12.08;50.30
64368;BME280;50692;53.314;-6.300;2023-01-31T15:52:31;102057.69;;;12.03;50.08
64368;BME280;50692;53.314;-6.300;2023-01-31T15:55:19;102052.78;;;11.92;50.19
64368;BME280;50692;53.314;-6.300;2023-01-31T15:58:12;102058.97;;;11.93;50.43
64368;BME280;50692;53.314;-6.300;2023-01-31T16:01:02;102058.53;;;11.55;50.96
64368;BME280;50692;53.314;-6.300;2023-01-31T16:03:55;102076.25;;;11.53;51.50
64368;BME280;50692;53.314;-6.300;2023-01-31T16:06:45;102065.91;;;11.20;51.95
64368;BME280;50692;53.314;-6.300;2023-01-31T16:09:33;102076.25;;;11.01;53.25
64368;BME280;50692;53.314;-6.300;2023-01-31T16:12:19;102042.66;;;10.50;54.73
64368;BME280;50692;53.314;-6.300;2023-01-31T16:15:06;102076.25;;;10.47;55.92
64368;BME280;50692;53.314;-6.300;2023-01-31T16:18:00;102051.78;;;10.40;56.12
64368;BME280;50692;53.314;-6.300;2023-01-31T16:20:54;102080.25;;;10.30;57.34
64368;BME280;50692;53.314;-6.300;2023-01-31T16:23:43;102072.06;;;10.10;58.31
64368;BME280;50692;53.314;-6.300;2023-01-31T16:26:32;102093.19;;;10.10;58.58
64368;BME280;50692;53.314;-6.300;2023-01-31T16:29:20;102067.19;;;9.95;58.89
64368;BME280;50692;53.314;-6.300;2023-01-31T16:32:30;102080.16;;;10.02;59.72
64368;BME280;50692;53.314;-6.300;2023-01-31T16:35:26;102072.06;;;9.79;59.65
64368;BME280;50692;53.314;-6.300;2023-01-31T16:38:39;102099.25;;;9.81;59.85
64368;BME280;50692;53.314;-6.300;2023-01-31T16:41:47;102100.47;;;9.71;59.59
64368;BME280;50692;53.314;-6.300;2023-01-31T16:44:41;102105.75;;;9.71;59.82
64368;BME280;50692;53.314;-6.300;2023-01-31T16:47:53;102098.84;;;9.65;59.74
64368;BME280;50692;53.314;-6.300;2023-01-31T16:50:40;102091.53;;;9.42;60.07
64368;BME280;50692;53.314;-6.300;2023-01-31T16:53:31;102087.94;;;9.45;60.11
64368;BME280;50692;53.314;-6.300;2023-01-31T16:56:19;102078.00;;;9.20;60.30
64368;BME280;50692;53.314;-6.300;2023-01-31T17:02:48;102113.78;;;9.32;61.04
64368;BME280;50692;53.314;-6.300;2023-01-31T17:05:39;102124.50;;;9.26;61.57
64368;BME280;50692;53.314;-6.300;2023-01-31T17:08:28;102114.00;;;9.23;61.72
64368;BME280;50692;53.314;-6.300;2023-01-31T17:11:17;102116.78;;;9.18;62.28